KPRX/PRX METAR and TAF weather

Enter ICAO airport designator
Station Type Date Time Source
KPRX METAR 2022/06/30 12:56 UTC NOAA

KPRX 301256Z AUTO 13006KT 10SM CLR 24/19 A3010 RMK AO2 SLP188 T02390194


Station Type Date Time Source
KPRX Decoded METAR 2022/06/30 12:56 UTC NOAA

Paris / Cox Field, TX, United States (KPRX) 33-38N 095-27W
Jun 30, 2022 - 08:56 AM EDT / 2022.06.30 1256 UTC
Wind: from the SE (130 degrees) at 7 MPH (6 KT):0
Visibility: 10 mile(s):0
Sky conditions: clear
Temperature: 75.0 F (23.9 C)
Dew Point: 66.9 F (19.4 C)
Relative Humidity: 75%
Pressure (altimeter): 30.1 in. Hg (1019 hPa)
ob: KPRX 301256Z AUTO 13006KT 10SM CLR 24/19 A3010 RMK AO2 SLP188 T02390194
cycle: 13

Station Type Date Time Source
KPRX TAF UTC NOAA

Error!

Example: see airport list